createdAt,value
2022-08-18T00:01:16.699Z,25.65
2022-08-18T00:03:55.903Z,21.98
2022-08-18T00:06:29.373Z,29.33
2022-08-18T00:08:59.437Z,27.00
2022-08-18T00:11:28.497Z,27.27
2022-08-18T00:14:11.532Z,29.45
2022-08-18T00:16:50.008Z,27.40
2022-08-18T00:19:19.561Z,29.38
2022-08-18T00:21:47.683Z,35.55
2022-08-18T00:24:15.804Z,31.23
2022-08-18T00:26:44.007Z,29.65
2022-08-18T00:29:16.877Z,38.90
2022-08-18T00:31:45.063Z,31.30
2022-08-18T00:34:13.194Z,33.05
2022-08-18T00:36:42.785Z,32.50
2022-08-18T00:39:11.429Z,28.45
2022-08-18T00:41:39.878Z,31.17
2022-08-18T00:44:08.740Z,30.27
2022-08-18T00:46:39.021Z,36.35
2022-08-18T00:49:07.290Z,36.08
2022-08-18T00:51:41.111Z,28.38
2022-08-18T00:54:16.231Z,35.22
2022-08-18T00:56:48.096Z,31.58
2022-08-18T00:59:22.152Z,28.23
2022-08-18T01:01:52.547Z,33.22
2022-08-18T01:04:26.921Z,35.17
2022-08-18T01:07:00.552Z,32.85
2022-08-18T01:09:30.126Z,33.03
2022-08-18T01:11:58.405Z,32.42
2022-08-18T01:14:26.601Z,36.90
2022-08-18T01:17:12.124Z,40.70
2022-08-18T01:19:58.673Z,30.88
2022-08-18T01:22:33.808Z,32.15
2022-08-18T01:25:21.830Z,31.98
2022-08-18T01:27:57.034Z,33.70
2022-08-18T01:30:29.439Z,33.25
2022-08-18T01:32:58.778Z,34.95
2022-08-18T01:35:28.557Z,29.02
2022-08-18T01:38:09.770Z,27.92
2022-08-18T01:41:23.420Z,32.83
2022-08-18T01:43:28.102Z,29.42
2022-08-18T01:45:57.577Z,32.35
2022-08-18T01:48:29.217Z,35.83
2022-08-18T01:50:57.225Z,32.22
2022-08-18T01:53:25.473Z,30.65
2022-08-18T01:55:55.735Z,32.35
2022-08-18T01:58:31.447Z,32.03
2022-08-18T02:01:01.924Z,36.95
2022-08-18T02:03:35.489Z,33.85
2022-08-18T02:06:05.787Z,36.10
2022-08-18T02:08:34.109Z,37.03
2022-08-18T02:11:03.700Z,34.53
2022-08-18T02:13:31.881Z,35.35
2022-08-18T02:15:59.941Z,30.98
2022-08-18T02:18:47.425Z,34.83
2022-08-18T02:21:19.589Z,30.42
2022-08-18T02:23:53.260Z,32.00
2022-08-18T02:26:23.723Z,35.95
2022-08-18T02:28:52.347Z,31.90
2022-08-18T02:31:22.860Z,40.78
2022-08-18T02:33:51.744Z,37.38
2022-08-18T02:36:20.894Z,32.40
2022-08-18T02:38:54.853Z,37.25
2022-08-18T02:41:30.139Z,37.20
2022-08-18T02:43:58.575Z,36.35
2022-08-18T02:46:29.269Z,27.80
2022-08-18T02:48:58.539Z,37.58
2022-08-18T02:51:26.761Z,39.33
2022-08-18T02:53:55.315Z,36.55
2022-08-18T02:56:40.059Z,37.80
2022-08-18T02:59:13.947Z,37.45
2022-08-18T03:01:46.152Z,36.22
2022-08-18T03:04:17.701Z,38.55
2022-08-18T03:06:46.433Z,37.65
2022-08-18T03:09:17.054Z,35.80
2022-08-18T03:11:46.208Z,32.17
2022-08-18T03:14:16.759Z,34.10
2022-08-18T03:16:53.171Z,36.55
2022-08-18T03:19:23.235Z,38.13
2022-08-18T03:21:52.790Z,39.58
2022-08-18T03:24:22.815Z,36.75
2022-08-18T03:26:53.684Z,39.75
2022-08-18T03:29:25.544Z,38.65
2022-08-18T03:31:57.491Z,39.42
2022-08-18T03:34:25.678Z,34.13
2022-08-18T03:36:53.867Z,36.83
2022-08-18T03:39:23.575Z,33.92
2022-08-18T03:41:58.170Z,39.40
2022-08-18T03:44:32.106Z,37.47
2022-08-18T03:47:03.117Z,34.63
2022-08-18T03:49:33.561Z,41.13
2022-08-18T03:52:02.490Z,39.15
2022-08-18T03:54:33.656Z,38.95
2022-08-18T03:57:02.194Z,41.22
2022-08-18T03:59:32.266Z,43.22
2022-08-18T04:02:00.640Z,38.33
2022-08-18T04:04:29.766Z,44.88
2022-08-18T04:07:06.964Z,43.97
2022-08-18T04:09:36.605Z,44.80
2022-08-18T04:12:10.417Z,36.38
2022-08-18T04:14:48.378Z,40.88
2022-08-18T04:17:17.105Z,45.53
2022-08-18T04:19:45.570Z,39.55
2022-08-18T04:22:17.617Z,47.75
2022-08-18T04:24:46.924Z,36.70
2022-08-18T04:27:15.340Z,40.85
2022-08-18T04:29:44.836Z,43.85
2022-08-18T04:32:15.159Z,45.15
2022-08-18T04:34:43.419Z,47.13
2022-08-18T04:37:11.879Z,41.53
2022-08-18T04:39:39.989Z,45.40
2022-08-18T04:42:08.235Z,40.67
2022-08-18T04:44:37.828Z,35.50
2022-08-18T04:47:09.085Z,45.80
2022-08-18T04:49:37.698Z,45.10
2022-08-18T04:52:39.867Z,43.83
2022-08-18T04:55:10.473Z,42.60
2022-08-18T04:57:39.159Z,44.40
2022-08-18T05:00:08.910Z,37.13
2022-08-18T05:02:38.342Z,43.70
2022-08-18T05:05:07.256Z,41.17
2022-08-18T05:07:35.460Z,34.22
2022-08-18T05:10:03.746Z,35.15
2022-08-18T05:12:31.837Z,38.38
2022-08-18T05:15:00.200Z,46.30
2022-08-18T05:17:30.180Z,42.10
2022-08-18T05:20:01.635Z,38.08
2022-08-18T05:22:31.618Z,38.47
2022-08-18T05:25:00.889Z,44.58
2022-08-18T05:27:33.995Z,45.10
2022-08-18T05:30:02.456Z,41.55
2022-08-18T05:32:47.165Z,43.28
2022-08-18T05:35:23.244Z,45.05
2022-08-18T05:38:16.468Z,40.10
2022-08-18T05:40:47.218Z,40.60
2022-08-18T05:43:17.333Z,42.35
2022-08-18T05:45:45.504Z,38.38
2022-08-18T05:48:15.192Z,46.30
2022-08-18T05:50:44.791Z,45.70
2022-08-18T05:53:20.766Z,38.17
2022-08-18T05:56:15.432Z,49.25
2022-08-18T05:58:46.642Z,40.45
2022-08-18T06:01:19.663Z,38.85
2022-08-18T06:03:50.466Z,39.13
2022-08-18T06:06:24.092Z,46.60
2022-08-18T06:09:02.303Z,42.20
2022-08-18T06:11:30.545Z,47.88
2022-08-18T06:14:00.394Z,38.00
2022-08-18T06:16:47.340Z,48.03
2022-08-18T06:19:34.695Z,51.53
2022-08-18T06:22:18.236Z,41.30
2022-08-18T06:24:54.185Z,38.38
2022-08-18T06:27:32.522Z,42.28
2022-08-18T06:30:08.593Z,57.33
2022-08-18T06:32:52.877Z,52.83
2022-08-18T06:35:30.321Z,52.05
2022-08-18T06:38:30.017Z,52.00
2022-08-18T06:41:41.919Z,39.78
2022-08-18T06:44:05.518Z,45.60
2022-08-18T06:46:43.357Z,51.15
2022-08-18T06:49:13.779Z,49.67
2022-08-18T06:51:43.668Z,49.10
2022-08-18T06:57:05.577Z,52.35
2022-08-18T06:59:36.523Z,46.60
2022-08-18T07:02:20.626Z,50.17
2022-08-18T07:05:02.423Z,44.72
2022-08-18T07:07:40.067Z,40.97
2022-08-18T07:10:30.735Z,52.55
2022-08-18T07:13:10.153Z,48.25
2022-08-18T07:15:38.338Z,44.00
2022-08-18T07:18:09.209Z,43.17
2022-08-18T07:20:44.800Z,42.90
2022-08-18T07:23:25.386Z,46.67
2022-08-18T07:26:01.574Z,43.90
2022-08-18T07:28:33.914Z,47.47
2022-08-18T07:31:19.524Z,44.47
2022-08-18T07:33:56.708Z,40.13
2022-08-18T07:36:29.881Z,40.25
2022-08-18T07:39:03.009Z,37.15
2022-08-18T07:41:35.633Z,38.72
2022-08-18T07:44:16.543Z,37.50
2022-08-18T07:46:52.865Z,42.70
2022-08-18T07:49:23.963Z,42.53
2022-08-18T07:51:57.906Z,38.35
2022-08-18T07:54:50.379Z,43.17
2022-08-18T07:57:27.824Z,42.65
2022-08-18T08:00:05.566Z,37.60
2022-08-18T08:02:55.187Z,38.45
2022-08-18T08:05:40.658Z,40.55
2022-08-18T08:08:25.013Z,42.55
2022-08-18T08:11:08.146Z,36.53
2022-08-18T08:13:55.722Z,36.05
2022-08-18T08:16:37.224Z,34.20
2022-08-18T08:19:17.760Z,37.85
2022-08-18T08:22:01.027Z,32.42
2022-08-18T08:24:38.621Z,34.90
2022-08-18T08:27:14.184Z,34.60
2022-08-18T08:29:53.818Z,36.15
2022-08-18T08:32:30.232Z,39.42
2022-08-18T08:35:04.272Z,39.25
2022-08-18T08:37:41.944Z,38.70
2022-08-18T08:40:18.377Z,40.35
2022-08-18T08:42:52.598Z,39.97
2022-08-18T08:45:25.946Z,39.70
2022-08-18T08:48:08.847Z,40.67
2022-08-18T08:50:42.513Z,35.75
2022-08-18T08:53:20.559Z,34.30
2022-08-18T08:55:52.448Z,33.55
2022-08-18T08:58:26.532Z,33.22
2022-08-18T09:00:56.186Z,34.70
2022-08-18T09:03:34.934Z,31.98
2022-08-18T09:06:13.316Z,33.10
2022-08-18T09:09:10.941Z,33.38
2022-08-18T09:12:04.749Z,30.77
2022-08-18T09:15:04.805Z,34.85
2022-08-18T09:17:57.925Z,37.03
2022-08-18T09:20:49.372Z,37.70
2022-08-18T09:23:21.449Z,32.03
2022-08-18T09:25:53.347Z,34.28
2022-08-18T09:28:24.915Z,38.78
2022-08-18T09:31:20.017Z,36.67
2022-08-18T09:34:18.958Z,33.60
2022-08-18T09:37:06.021Z,33.35
2022-08-18T09:42:50.558Z,30.48
2022-08-18T09:45:54.625Z,32.63
2022-08-18T09:51:32.783Z,31.58
2022-08-18T09:54:24.998Z,31.48
2022-08-18T09:57:20.718Z,30.77
2022-08-18T09:59:59.672Z,29.33
2022-08-18T10:03:05.418Z,28.35
2022-08-18T10:05:36.562Z,32.63
2022-08-18T10:08:53.856Z,30.65
2022-08-18T10:11:39.028Z,30.38
2022-08-18T10:14:30.629Z,38.42
2022-08-18T10:17:21.518Z,34.45
2022-08-18T10:20:01.015Z,27.42
2022-08-18T10:22:41.400Z,31.77
2022-08-18T10:25:22.953Z,34.17
2022-08-18T10:27:56.813Z,35.75
2022-08-18T10:31:05.945Z,28.80
2022-08-18T10:36:58.767Z,31.25
2022-08-18T10:39:45.084Z,32.78
2022-08-18T10:42:23.538Z,27.83
2022-08-18T10:45:07.854Z,26.52
2022-08-18T10:47:40.005Z,26.20
2022-08-18T10:50:20.759Z,25.88
2022-08-18T10:53:32.819Z,26.67
2022-08-18T10:56:01.153Z,29.83
2022-08-18T10:58:50.995Z,26.75
2022-08-18T11:01:40.316Z,30.75
2022-08-18T11:04:13.788Z,24.42
2022-08-18T11:06:50.136Z,28.00
2022-08-18T11:09:26.404Z,25.02
2022-08-18T11:11:59.621Z,20.60
2022-08-18T11:15:22.697Z,25.05
2022-08-18T11:18:10.118Z,21.83
2022-08-18T11:20:40.207Z,22.55
2022-08-18T11:23:16.798Z,26.10
2022-08-18T11:25:45.833Z,26.13
2022-08-18T11:28:18.670Z,22.45
2022-08-18T11:30:48.983Z,23.55
2022-08-18T11:33:23.171Z,19.70
2022-08-18T11:35:54.782Z,20.50
2022-08-18T11:41:17.253Z,22.77
2022-08-18T11:43:47.416Z,24.77
2022-08-18T11:46:29.681Z,25.90
2022-08-18T11:49:24.014Z,25.30
2022-08-18T11:52:03.284Z,21.45
2022-08-18T11:54:50.935Z,23.95
2022-08-18T11:57:46.247Z,22.85
2022-08-18T12:00:43.250Z,22.63
2022-08-18T12:03:23.984Z,26.77
2022-08-18T12:05:56.862Z,24.50
2022-08-18T12:08:57.308Z,24.80
2022-08-18T12:14:31.435Z,24.25
2022-08-18T12:17:02.136Z,24.15
2022-08-18T12:22:24.596Z,20.95
2022-08-18T12:24:54.676Z,18.30
2022-08-18T12:27:25.217Z,22.15
2022-08-18T12:30:01.956Z,21.13
2022-08-18T12:32:56.092Z,30.33
2022-08-18T12:35:22.574Z,32.05
2022-08-18T12:38:11.129Z,22.02
2022-08-18T12:40:41.770Z,16.63
2022-08-18T12:43:10.529Z,20.40
2022-08-18T12:45:39.181Z,18.00
2022-08-18T12:48:08.182Z,15.98
2022-08-18T12:50:50.148Z,18.55
2022-08-18T12:53:29.441Z,16.77
2022-08-18T12:58:56.203Z,21.33
2022-08-18T13:01:26.667Z,16.33
2022-08-18T13:04:10.876Z,15.45
2022-08-18T13:07:00.031Z,22.88
2022-08-18T13:09:35.122Z,13.98
2022-08-18T13:12:20.396Z,15.60
2022-08-18T13:14:50.988Z,15.98
2022-08-18T13:17:32.420Z,14.43
2022-08-18T13:20:03.106Z,15.10
2022-08-18T13:22:32.682Z,15.50
2022-08-18T13:25:03.934Z,15.98
2022-08-18T13:27:33.626Z,14.95
2022-08-18T13:30:29.391Z,11.60
2022-08-18T13:33:00.633Z,12.15
2022-08-18T13:35:37.930Z,11.38
2022-08-18T13:38:14.148Z,13.02
2022-08-18T13:40:49.469Z,9.88
2022-08-18T13:43:18.993Z,14.80
2022-08-18T13:45:52.945Z,9.85
2022-08-18T13:48:23.946Z,11.82
2022-08-18T13:50:55.765Z,8.82
2022-08-18T13:53:26.424Z,10.55
2022-08-18T13:55:59.120Z,10.55
2022-08-18T13:58:28.754Z,10.05
2022-08-18T14:01:22.697Z,8.70
2022-08-18T14:03:47.906Z,7.38
2022-08-18T14:06:22.752Z,10.30
2022-08-18T14:08:53.009Z,7.50
2022-08-18T14:11:27.635Z,10.48
2022-08-18T14:14:01.892Z,8.80
2022-08-18T14:16:30.858Z,9.45
2022-08-18T14:19:18.764Z,7.20
2022-08-18T14:22:11.726Z,8.73
2022-08-18T14:24:59.297Z,9.00
2022-08-18T14:27:34.963Z,7.72
2022-08-18T14:30:04.946Z,7.30
2022-08-18T14:32:36.422Z,8.85
2022-08-18T14:35:32.940Z,9.23
2022-08-18T14:37:56.287Z,7.22
2022-08-18T14:40:25.366Z,12.48
2022-08-18T14:42:55.579Z,10.38
2022-08-18T14:45:31.672Z,16.75
2022-08-18T14:48:04.505Z,8.15
2022-08-18T14:50:35.541Z,8.38
2022-08-18T14:53:03.767Z,8.40
2022-08-18T14:55:31.985Z,10.60
2022-08-18T14:58:01.806Z,12.00
2022-08-18T15:00:30.209Z,9.98
2022-08-18T15:02:59.462Z,10.07
2022-08-18T15:05:33.682Z,8.25
2022-08-18T15:08:03.834Z,8.88
2022-08-18T15:10:36.192Z,9.15
2022-08-18T15:13:05.929Z,9.52
2022-08-18T15:15:42.306Z,7.20
2022-08-18T15:18:22.870Z,7.13
2022-08-18T15:21:10.171Z,7.45
2022-08-18T15:23:58.258Z,8.75
2022-08-18T15:26:27.485Z,8.82
2022-08-18T15:29:00.684Z,7.38
2022-08-18T15:31:51.382Z,6.88
2022-08-18T15:34:23.050Z,7.65
2022-08-18T15:36:56.992Z,8.50
2022-08-18T15:39:25.649Z,7.32
2022-08-18T15:41:58.147Z,7.70
2022-08-18T15:44:27.653Z,14.90
2022-08-18T15:46:56.892Z,7.35
2022-08-18T15:49:25.047Z,7.10
2022-08-18T15:51:55.187Z,7.95
2022-08-18T15:54:25.575Z,7.13
2022-08-18T15:56:57.926Z,8.57
2022-08-18T15:59:34.237Z,8.52
2022-08-18T16:02:11.812Z,6.40
2022-08-18T16:04:46.188Z,7.97
2022-08-18T16:07:17.932Z,7.28
2022-08-18T16:09:53.406Z,8.25
2022-08-18T16:12:21.640Z,8.50
2022-08-18T16:14:53.165Z,6.93
2022-08-18T16:17:29.999Z,7.10
2022-08-18T16:20:00.074Z,8.60
2022-08-18T16:22:28.633Z,5.40
2022-08-18T16:24:56.889Z,8.25
2022-08-18T16:27:25.095Z,8.88
2022-08-18T16:29:55.429Z,6.80
2022-08-18T16:32:24.373Z,8.75
2022-08-18T16:34:52.893Z,15.90
2022-08-18T16:37:21.126Z,6.82
2022-08-18T16:39:50.119Z,8.18
2022-08-18T16:42:18.320Z,7.97
2022-08-18T16:44:46.746Z,8.93
2022-08-18T16:47:18.377Z,7.85
2022-08-18T16:49:48.539Z,7.80
2022-08-18T16:52:16.737Z,9.10
2022-08-18T16:54:46.981Z,8.00
2022-08-18T16:57:53.722Z,9.07
2022-08-18T17:00:42.794Z,7.90
2022-08-18T17:03:30.310Z,6.70
2022-08-18T17:06:03.011Z,9.25
2022-08-18T17:08:34.144Z,7.70
2022-08-18T17:11:02.776Z,8.05
2022-08-18T17:13:31.417Z,6.18
2022-08-18T17:15:59.823Z,7.18
2022-08-18T17:18:30.374Z,8.85
2022-08-18T17:21:02.223Z,6.18
2022-08-18T17:23:30.507Z,7.05
2022-08-18T17:25:59.745Z,6.13
2022-08-18T17:28:35.511Z,8.98
2022-08-18T17:31:03.733Z,6.10
2022-08-18T17:33:35.220Z,6.80
2022-08-18T17:36:08.106Z,6.43
2022-08-18T17:38:44.959Z,6.35
2022-08-18T17:41:15.126Z,6.25
2022-08-18T17:46:27.485Z,7.30
2022-08-18T17:49:01.790Z,8.60
2022-08-18T17:51:35.131Z,6.20
2022-08-18T17:54:10.194Z,5.80
2022-08-18T17:56:45.416Z,6.38
2022-08-18T17:59:45.236Z,5.80
2022-08-18T18:02:28.619Z,7.60
2022-08-18T18:05:00.121Z,6.05
2022-08-18T18:07:31.549Z,6.90
2022-08-18T18:10:03.584Z,4.85
2022-08-18T18:12:35.846Z,6.57
2022-08-18T18:15:07.899Z,6.22
2022-08-18T18:17:38.722Z,5.47
2022-08-18T18:20:23.714Z,5.57
2022-08-18T18:22:52.768Z,5.45
2022-08-18T18:25:34.800Z,4.72
2022-08-18T18:28:03.440Z,5.05
2022-08-18T18:30:32.799Z,5.75
2022-08-18T18:33:03.922Z,5.60
2022-08-18T18:35:54.019Z,5.18
2022-08-18T18:38:28.572Z,5.65
2022-08-18T18:41:00.133Z,4.70
2022-08-18T18:43:34.798Z,6.20
2022-08-18T18:46:19.504Z,5.43
2022-08-18T18:48:58.151Z,6.55
2022-08-18T18:51:36.053Z,5.68
2022-08-18T18:54:13.148Z,6.70
2022-08-18T18:56:46.273Z,6.78
2022-08-18T18:59:28.538Z,6.15
2022-08-18T19:02:34.277Z,5.53
2022-08-18T19:05:14.392Z,4.68
2022-08-18T19:07:54.306Z,6.00
2022-08-18T19:10:30.314Z,6.00
2022-08-18T19:13:02.168Z,7.07
2022-08-18T19:15:36.456Z,4.72
2022-08-18T19:18:25.536Z,10.90
2022-08-18T19:22:02.483Z,8.55
2022-08-18T19:23:52.083Z,5.35
2022-08-18T19:26:27.125Z,6.68
2022-08-18T19:29:12.496Z,6.03
2022-08-18T19:31:48.256Z,5.15
2022-08-18T19:34:19.750Z,5.55
2022-08-18T19:36:57.617Z,5.65
2022-08-18T19:39:33.687Z,6.50
2022-08-18T19:42:06.433Z,7.22
2022-08-18T19:44:50.919Z,6.45
2022-08-18T19:47:36.687Z,21.95
2022-08-18T19:50:14.142Z,17.10
2022-08-18T19:53:01.021Z,6.20
2022-08-18T19:55:41.399Z,5.70
2022-08-18T19:58:29.972Z,5.28
2022-08-18T20:01:01.531Z,6.18
2022-08-18T20:03:53.865Z,5.32
2022-08-18T20:06:51.085Z,5.85
2022-08-18T20:09:35.682Z,7.03
2022-08-18T20:12:14.551Z,5.32
2022-08-18T20:14:43.740Z,9.10
2022-08-18T20:17:20.660Z,8.98
2022-08-18T20:20:10.730Z,6.60
2022-08-18T20:22:42.502Z,7.68
2022-08-18T20:25:34.535Z,7.40
2022-08-18T20:28:33.471Z,6.93
2022-08-18T20:31:12.043Z,5.97
2022-08-18T20:33:46.200Z,5.55
2022-08-18T20:36:29.730Z,5.28
2022-08-18T20:39:00.343Z,5.75
2022-08-18T20:41:44.054Z,5.32
2022-08-18T20:44:50.695Z,5.18
2022-08-18T20:47:44.823Z,4.95
2022-08-18T20:50:36.242Z,5.60
2022-08-18T20:53:13.627Z,5.40
2022-08-18T20:55:53.111Z,6.78
2022-08-18T20:58:27.095Z,5.18
2022-08-18T21:00:58.618Z,5.50
2022-08-18T21:03:37.941Z,5.18
2022-08-18T21:06:06.914Z,6.03
2022-08-18T21:08:38.014Z,6.22
2022-08-18T21:11:10.203Z,4.18
2022-08-18T21:13:52.811Z,5.10
2022-08-18T21:16:39.147Z,4.50
2022-08-18T21:19:13.852Z,7.20
2022-08-18T21:21:46.350Z,3.40
2022-08-18T21:24:27.639Z,3.88
2022-08-18T21:26:58.571Z,4.05
2022-08-18T21:29:42.252Z,4.53
2022-08-18T21:32:22.461Z,4.10
2022-08-18T21:34:50.670Z,4.03
2022-08-18T21:37:20.387Z,4.72
2022-08-18T21:39:55.401Z,4.57
2022-08-18T21:42:27.570Z,6.25
2022-08-18T21:45:00.497Z,4.88
2022-08-18T21:47:32.621Z,4.82
2022-08-18T21:50:08.284Z,4.40
2022-08-18T21:52:38.043Z,4.85
2022-08-18T21:55:14.591Z,4.00
2022-08-18T21:57:52.495Z,5.20
2022-08-18T22:00:26.898Z,4.68
2022-08-18T22:05:58.962Z,4.90
2022-08-18T22:08:30.513Z,3.30
2022-08-18T22:11:59.995Z,4.00
2022-08-18T22:14:54.062Z,3.08
2022-08-18T22:17:30.050Z,4.47
2022-08-18T22:20:39.124Z,3.35
2022-08-18T22:23:39.658Z,4.38
2022-08-18T22:26:13.685Z,3.38
2022-08-18T22:28:53.815Z,3.58
2022-08-18T22:31:22.926Z,4.97
2022-08-18T22:33:52.052Z,4.88
2022-08-18T22:36:22.360Z,4.47
2022-08-18T22:38:52.426Z,5.93
2022-08-18T22:41:21.699Z,3.83
2022-08-18T22:43:54.723Z,4.88
2022-08-18T22:46:25.128Z,4.50
2022-08-18T22:48:53.885Z,3.88
2022-08-18T22:51:24.330Z,3.85
2022-08-18T22:53:54.132Z,3.13
2022-08-18T22:56:34.711Z,3.20
2022-08-18T22:59:13.613Z,4.47
2022-08-18T23:01:43.401Z,3.67
2022-08-18T23:04:12.702Z,6.57
2022-08-18T23:06:40.771Z,3.10
2022-08-18T23:09:10.230Z,3.45
2022-08-18T23:11:38.279Z,3.85
2022-08-18T23:14:06.842Z,3.38
2022-08-18T23:16:35.627Z,3.65
2022-08-18T23:19:03.781Z,4.07
2022-08-18T23:21:34.234Z,3.83
2022-08-18T23:24:04.816Z,3.05
2022-08-18T23:26:35.019Z,3.33
2022-08-18T23:29:03.810Z,3.78
2022-08-18T23:31:32.213Z,2.60
2022-08-18T23:34:00.863Z,4.63
2022-08-18T23:36:29.150Z,3.45
2022-08-18T23:38:57.507Z,3.85
2022-08-18T23:41:26.102Z,3.80
2022-08-18T23:43:55.467Z,5.20
2022-08-18T23:46:28.002Z,5.47
2022-08-18T23:48:58.204Z,3.33
2022-08-18T23:51:29.807Z,4.50
2022-08-18T23:54:00.134Z,4.03
2022-08-18T23:56:28.649Z,4.45
2022-08-18T23:58:59.070Z,7.85
